sensor_id;sensor_type;location;lat;lon;timestamp;P1;P2;P0
47711;PMS7003;57457;51.634;5.886;2022-10-31T00:11:08;12.85;13.09;6.11
47711;PMS7003;57457;51.634;5.886;2022-10-31T00:24:27;13.69;14.62;7.09
47711;PMS7003;57457;51.634;5.886;2022-10-31T00:37:47;13.45;15.27;6.99
47711;PMS7003;57457;51.634;5.886;2022-10-31T00:51:06;15.73;15.05;6.77
47711;PMS7003;57457;51.634;5.886;2022-10-31T01:04:26;13.81;14.4;6.88
47711;PMS7003;57457;51.634;5.886;2022-10-31T01:17:45;11.65;11.89;5.68
47711;PMS7003;57457;51.634;5.886;2022-10-31T01:31:05;6.01;8.51;4.15
47711;PMS7003;57457;51.634;5.886;2022-10-31T01:44:25;9.13;10.8;5.02
47711;PMS7003;57457;51.634;5.886;2022-10-31T01:57:44;18.01;17.23;8.18
47711;PMS7003;57457;51.634;5.886;2022-10-31T02:11:04;21.37;18.98;8.73
47711;PMS7003;57457;51.634;5.886;2022-10-31T02:24:23;18.85;18.76;9.17
47711;PMS7003;57457;51.634;5.886;2022-10-31T02:37:43;18.73;18.1;8.62
47711;PMS7003;57457;51.634;5.886;2022-10-31T02:51:03;13.45;14.83;7.2
47711;PMS7003;57457;51.634;5.886;2022-10-31T03:04:22;16.21;16.36;7.31
47711;PMS7003;57457;51.634;5.886;2022-10-31T03:17:42;13.21;15.16;7.31
47711;PMS7003;57457;51.634;5.886;2022-10-31T03:31:02;11.77;13.2;6.66
47711;PMS7003;57457;51.634;5.886;2022-10-31T03:44:21;16.81;16.58;7.97
47711;PMS7003;57457;51.634;5.886;2022-10-31T03:57:41;11.17;12.87;6.33
47711;PMS7003;57457;51.634;5.886;2022-10-31T04:11:00;5.65;8.4;4.59
47711;PMS7003;57457;51.634;5.886;2022-10-31T04:24:20;6.61;9.27;4.59
47711;PMS7003;57457;51.634;5.886;2022-10-31T04:50:59;7.45;10.04;5.13
47711;PMS7003;57457;51.634;5.886;2022-10-31T05:04:19;11.89;12.98;6.44
47711;PMS7003;57457;51.634;5.886;2022-10-31T05:30:58;11.53;13.42;6.77
47711;PMS7003;57457;51.634;5.886;2022-10-31T05:44:18;11.65;13.63;6.44
47711;PMS7003;57457;51.634;5.886;2022-10-31T05:57:37;11.29;12.98;6.0
47711;PMS7003;57457;51.634;5.886;2022-10-31T06:10:57;12.13;12.65;6.22
47711;PMS7003;57457;51.634;5.886;2022-10-31T06:24:17;9.85;12.22;6.11
47711;PMS7003;57457;51.634;5.886;2022-10-31T06:37:36;8.53;10.8;5.68
47711;PMS7003;57457;51.634;5.886;2022-10-31T06:50:56;8.89;11.35;6.0
47711;PMS7003;57457;51.634;5.886;2022-10-31T07:04:16;10.09;11.78;5.9
47711;PMS7003;57457;51.634;5.886;2022-10-31T07:17:35;13.33;15.38;7.09
47711;PMS7003;57457;51.634;5.886;2022-10-31T07:30:55;15.13;16.58;7.31
47711;PMS7003;57457;51.634;5.886;2022-10-31T07:44:14;16.21;17.56;8.4
47711;PMS7003;57457;51.634;5.886;2022-10-31T07:57:34;21.49;19.08;8.62
47711;PMS7003;57457;51.634;5.886;2022-10-31T08:10:54;24.97;21.59;11.02
47711;PMS7003;57457;51.634;5.886;2022-10-31T08:24:13;26.29;23.23;12.22
47711;PMS7003;57457;51.634;5.886;2022-10-31T08:37:33;26.89;23.44;12.54
47711;PMS7003;57457;51.634;5.886;2022-10-31T08:50:52;27.13;23.01;11.89
47711;PMS7003;57457;51.634;5.886;2022-10-31T09:04:12;26.29;22.79;11.67
47711;PMS7003;57457;51.634;5.886;2022-10-31T09:17:32;25.45;21.92;11.13
47711;PMS7003;57457;51.634;5.886;2022-10-31T09:30:51;26.29;22.79;11.56
47711;PMS7003;57457;51.634;5.886;2022-10-31T09:44:11;25.45;21.37;11.02
47711;PMS7003;57457;51.634;5.886;2022-10-31T09:57:31;22.09;20.39;10.04
47711;PMS7003;57457;51.634;5.886;2022-10-31T10:10:50;25.81;20.61;10.36
47711;PMS7003;57457;51.634;5.886;2022-10-31T10:24:10;23.29;20.17;10.69
47711;PMS7003;57457;51.634;5.886;2022-10-31T10:37:30;25.45;20.5;10.8
47711;PMS7003;57457;51.634;5.886;2022-10-31T10:50:49;22.33;20.07;10.04
47711;PMS7003;57457;51.634;5.886;2022-10-31T11:04:09;23.89;20.17;10.15
47711;PMS7003;57457;51.634;5.886;2022-10-31T11:17:28;24.25;20.39;10.58
47711;PMS7003;57457;51.634;5.886;2022-10-31T11:30:48;23.05;20.28;10.36
47711;PMS7003;57457;51.634;5.886;2022-10-31T11:44:08;22.09;19.3;9.27
47711;PMS7003;57457;51.634;5.886;2022-10-31T11:57:27;18.97;18.32;8.73
47711;PMS7003;57457;51.634;5.886;2022-10-31T12:10:47;15.25;16.69;8.18
47711;PMS7003;57457;51.634;5.886;2022-10-31T12:24:07;16.69;15.38;7.2
47711;PMS7003;57457;51.634;5.886;2022-10-31T12:37:26;19.21;16.14;7.64
47711;PMS7003;57457;51.634;5.886;2022-10-31T12:50:46;19.21;17.56;7.97
47711;PMS7003;57457;51.634;5.886;2022-10-31T13:04:05;18.85;17.99;7.86
47711;PMS7003;57457;51.634;5.886;2022-10-31T13:17:25;19.81;16.9;7.53
47711;PMS7003;57457;51.634;5.886;2022-10-31T13:30:45;19.57;17.12;7.75
47711;PMS7003;57457;51.634;5.886;2022-10-31T13:44:04;20.05;17.12;7.86
47711;PMS7003;57457;51.634;5.886;2022-10-31T13:57:24;17.65;16.9;7.86
47711;PMS7003;57457;51.634;5.886;2022-10-31T14:10:44;20.77;17.99;8.08
47711;PMS7003;57457;51.634;5.886;2022-10-31T14:24:03;18.61;18.65;8.62
47711;PMS7003;57457;51.634;5.886;2022-10-31T14:37:23;22.45;18.76;8.73
47711;PMS7003;57457;51.634;5.886;2022-10-31T14:50:42;21.01;19.85;9.27
47711;PMS7003;57457;51.634;5.886;2022-10-31T15:04:02;20.53;19.08;8.95
47711;PMS7003;57457;51.634;5.886;2022-10-31T15:17:22;20.77;19.74;9.71
47711;PMS7003;57457;51.634;5.886;2022-10-31T15:30:41;22.69;18.98;8.62
47711;PMS7003;57457;51.634;5.886;2022-10-31T15:44:01;19.57;18.1;8.84
47711;PMS7003;57457;51.634;5.886;2022-10-31T15:57:20;15.37;16.03;7.75
47711;PMS7003;57457;51.634;5.886;2022-10-31T16:10:40;15.25;15.71;7.64
47711;PMS7003;57457;51.634;5.886;2022-10-31T16:24:00;13.21;14.83;6.33
47711;PMS7003;57457;51.634;5.886;2022-10-31T16:37:19;9.97;11.24;5.35
47711;PMS7003;57457;51.634;5.886;2022-10-31T16:50:39;9.13;9.38;4.37
47711;PMS7003;57457;51.634;5.886;2022-10-31T17:03:58;5.05;7.64;3.82
47711;PMS7003;57457;51.634;5.886;2022-10-31T17:17:18;5.41;7.53;3.5
47711;PMS7003;57457;51.634;5.886;2022-10-31T17:30:38;5.29;6.99;3.82
47711;PMS7003;57457;51.634;5.886;2022-10-31T17:43:57;4.93;7.42;3.39
47711;PMS7003;57457;51.634;5.886;2022-10-31T17:57:17;4.93;7.42;3.39
47711;PMS7003;57457;51.634;5.886;2022-10-31T18:10:36;8.17;7.53;3.28
47711;PMS7003;57457;51.634;5.886;2022-10-31T18:23:56;4.81;6.99;3.61
47711;PMS7003;57457;51.634;5.886;2022-10-31T18:37:16;5.29;7.64;3.61
47711;PMS7003;57457;51.634;5.886;2022-10-31T18:50:35;6.25;7.75;3.71
47711;PMS7003;57457;51.634;5.886;2022-10-31T19:03:55;4.45;6.88;3.39
47711;PMS7003;57457;51.634;5.886;2022-10-31T19:17:15;5.65;7.86;4.04
47711;PMS7003;57457;51.634;5.886;2022-10-31T19:30:34;5.65;8.4;4.04
47711;PMS7003;57457;51.634;5.886;2022-10-31T19:43:54;5.77;8.08;4.04
47711;PMS7003;57457;51.634;5.886;2022-10-31T19:57:14;6.01;8.08;3.93
47711;PMS7003;57457;51.634;5.886;2022-10-31T20:10:33;6.97;9.49;4.7
47711;PMS7003;57457;51.634;5.886;2022-10-31T20:23:53;6.97;9.06;4.37
47711;PMS7003;57457;51.634;5.886;2022-10-31T20:37:12;8.05;8.73;3.71
47711;PMS7003;57457;51.634;5.886;2022-10-31T20:50:32;7.45;8.29;4.15
47711;PMS7003;57457;51.634;5.886;2022-10-31T21:17:11;7.09;9.17;4.48
47711;PMS7003;57457;51.634;5.886;2022-10-31T21:30:32;8.41;8.62;4.37
47711;PMS7003;57457;51.634;5.886;2022-10-31T21:57:12;6.13;8.84;4.15
47711;PMS7003;57457;51.634;5.886;2022-10-31T22:10:31;6.73;8.29;4.15
47711;PMS7003;57457;51.634;5.886;2022-10-31T22:23:51;6.37;8.4;4.26
47711;PMS7003;57457;51.634;5.886;2022-10-31T22:37:10;6.61;8.73;4.37
47711;PMS7003;57457;51.634;5.886;2022-10-31T22:50:30;7.69;10.04;4.26
47711;PMS7003;57457;51.634;5.886;2022-10-31T23:03:50;7.69;7.97;3.82
47711;PMS7003;57457;51.634;5.886;2022-10-31T23:17:09;6.01;7.64;3.93
47711;PMS7003;57457;51.634;5.886;2022-10-31T23:43:49;7.09;7.2;3.17
47711;PMS7003;57457;51.634;5.886;2022-10-31T23:57:08;6.73;6.77;3.5
